ADDS METAR Data INFO
IDs: Format: Raw Decoded Include TAF

Data at: 0046 UTC 21 Nov 2017

METAR for:KHSE (Hatteras/Mitchell Fl, NC, US)
Text:KHSE 202351Z AUTO 09003KT 10SM CLR 03/02 A3026 RMK AO2 SLP247 T00330017 10133 20033 50009 TSNO
Temperature: 3.3°C ( 38°F)
Dewpoint: 1.7°C ( 35°F) [RH = 89%]
Pressure (altimeter):30.26 inches Hg (1024.8 mb) [Sea level pressure: 1024.7 mb]
Winds:from the E (90 degrees) at 3 MPH (3 knots; 1.5 m/s)
Visibility:10 or more sm (16+ km)
Ceiling:at least 12,000 feet AGL
Clouds:sky clear below 12,000 feet AGL
QC Flag:automated observation with no human augmentation
Text:KHSE 202251Z AUTO 04003KT 10SM CLR 06/02 A3026 RMK AO2 SLP248 T00610022 TSNO
Temperature: 6.1°C ( 43°F)
Dewpoint: 2.2°C ( 36°F) [RH = 76%]
Pressure (altimeter):30.26 inches Hg (1024.8 mb) [Sea level pressure: 1024.8 mb]
Winds:from the NE (40 degrees) at 3 MPH (3 knots; 1.5 m/s)
Visibility:10 or more sm (16+ km)
Ceiling:at least 12,000 feet AGL
Clouds:sky clear below 12,000 feet AGL
QC Flag:automated observation with no human augmentation
Text:KHSE 202151Z AUTO 00000KT 10SM CLR 09/03 A3024 RMK AO2 SLP241 T00890033 TSNO
Temperature: 8.9°C ( 48°F)
Dewpoint: 3.3°C ( 38°F) [RH = 68%]
Pressure (altimeter):30.24 inches Hg (1024.1 mb) [Sea level pressure: 1024.1 mb]
Winds:calm
Visibility:10 or more sm (16+ km)
Ceiling:at least 12,000 feet AGL
Clouds:sky clear below 12,000 feet AGL
QC Flag:automated observation with no human augmentation
Text:KHSE 202051Z AUTO VRB04KT 10SM CLR 12/03 A3024 RMK AO2 SLP238 T01170033 53004 TSNO
Temperature: 11.7°C ( 53°F)
Dewpoint: 3.3°C ( 38°F) [RH = 56%]
Pressure (altimeter):30.24 inches Hg (1024.1 mb) [Sea level pressure: 1023.8 mb]
Winds:variable direction winds at 5 MPH (4 knots; 2.1 m/s)
Visibility:10 or more sm (16+ km)
Ceiling:at least 12,000 feet AGL
Clouds:sky clear below 12,000 feet AGL
QC Flag:automated observation with no human augmentation
Text:KHSE 201951Z AUTO 36005KT 10SM CLR 13/02 A3023 RMK AO2 SLP236 T01280022 TSNO
Temperature: 12.8°C ( 55°F)
Dewpoint: 2.2°C ( 36°F) [RH = 48%]
Pressure (altimeter):30.23 inches Hg (1023.8 mb) [Sea level pressure: 1023.6 mb]
Winds:from the N (360 degrees) at 6 MPH (5 knots; 2.6 m/s)
Visibility:10 or more sm (16+ km)
Ceiling:at least 12,000 feet AGL
Clouds:sky clear below 12,000 feet AGL
QC Flag:automated observation with no human augmentation
Text:KHSE 201851Z AUTO VRB04KT 10SM CLR 13/01 A3023 RMK AO2 SLP236 T01280011 TSNO
Temperature: 12.8°C ( 55°F)
Dewpoint: 1.1°C ( 34°F) [RH = 45%]
Pressure (altimeter):30.23 inches Hg (1023.8 mb) [Sea level pressure: 1023.6 mb]
Winds:variable direction winds at 5 MPH (4 knots; 2.1 m/s)
Visibility:10 or more sm (16+ km)
Ceiling:at least 12,000 feet AGL
Clouds:sky clear below 12,000 feet AGL
QC Flag:automated observation with no human augmentation
Text:KHSE 201751Z AUTO VRB06KT 10SM CLR 12/01 A3022 RMK AO2 SLP234 T01220011 10128 20078 58007 TSNO
Temperature: 12.2°C ( 54°F)
Dewpoint: 1.1°C ( 34°F) [RH = 47%]
Pressure (altimeter):30.22 inches Hg (1023.5 mb) [Sea level pressure: 1023.4 mb]
Winds:variable direction winds at 7 MPH (6 knots; 3.1 m/s)
Visibility:10 or more sm (16+ km)
Ceiling:at least 12,000 feet AGL
Clouds:sky clear below 12,000 feet AGL
QC Flag:automated observation with no human augmentation
Text:KHSE 201651Z AUTO VRB05KT 10SM CLR 12/02 A3024 RMK AO2 SLP238 T01170017 TSNO
Temperature: 11.7°C ( 53°F)
Dewpoint: 1.7°C ( 35°F) [RH = 50%]
Pressure (altimeter):30.24 inches Hg (1024.1 mb) [Sea level pressure: 1023.8 mb]
Winds:variable direction winds at 6 MPH (5 knots; 2.6 m/s)
Visibility:10 or more sm (16+ km)
Ceiling:at least 12,000 feet AGL
Clouds:sky clear below 12,000 feet AGL
QC Flag:automated observation with no human augmentation
Text:KHSE 201551Z AUTO VRB04KT 10SM CLR 11/01 A3025 RMK AO2 SLP243 T01110011 TSNO
Temperature: 11.1°C ( 52°F)
Dewpoint: 1.1°C ( 34°F) [RH = 50%]
Pressure (altimeter):30.25 inches Hg (1024.5 mb) [Sea level pressure: 1024.3 mb]
Winds:variable direction winds at 5 MPH (4 knots; 2.1 m/s)
Visibility:10 or more sm (16+ km)
Ceiling:at least 12,000 feet AGL
Clouds:sky clear below 12,000 feet AGL
QC Flag:automated observation with no human augmentation
Text:KHSE 201451Z AUTO 34008KT 10SM CLR 11/02 A3025 RMK AO2 SLP241 T01060022 51026 TSNO
Temperature: 10.6°C ( 51°F)
Dewpoint: 2.2°C ( 36°F) [RH = 56%]
Pressure (altimeter):30.25 inches Hg (1024.5 mb) [Sea level pressure: 1024.1 mb]
Winds:from the NNW (340 degrees) at 9 MPH (8 knots; 4.1 m/s)
Visibility:10 or more sm (16+ km)
Ceiling:at least 12,000 feet AGL
Clouds:sky clear below 12,000 feet AGL
QC Flag:automated observation with no human augmentation
Text:KHSE 201351Z AUTO 34008G16KT 10SM CLR 09/02 A3024 RMK AO2 SLP239 T00940017 TSNO
Temperature: 9.4°C ( 49°F)
Dewpoint: 1.7°C ( 35°F) [RH = 59%]
Pressure (altimeter):30.24 inches Hg (1024.1 mb) [Sea level pressure: 1023.9 mb]
Winds:from the NNW (340 degrees) at 9 MPH (8 knots; 4.1 m/s) gusting to 18 MPH (16 knots; 8.2 m/s)
Visibility:10 or more sm (16+ km)
Ceiling:at least 12,000 feet AGL
Clouds:sky clear below 12,000 feet AGL
QC Flag:automated observation with no human augmentation
Text:KHSE 201251Z AUTO 32007G16KT 290V350 10SM CLR 09/02 A3021 RMK AO2 SLP229 T00890017 TSNO
Temperature: 8.9°C ( 48°F)
Dewpoint: 1.7°C ( 35°F) [RH = 61%]
Pressure (altimeter):30.21 inches Hg (1023.1 mb) [Sea level pressure: 1022.9 mb]
Winds:from the NW (320 degrees) at 8 MPH (7 knots; 3.6 m/s) gusting to 18 MPH (16 knots; 8.2 m/s)
Visibility:10 or more sm (16+ km)
Ceiling:at least 12,000 feet AGL
Clouds:sky clear below 12,000 feet AGL
QC Flag:automated observation with no human augmentation
Text:KHSE 201151Z AUTO 33007KT 10SM CLR 08/01 A3017 RMK AO2 SLP215 70009 T00780011 10089 20078 51027 TSNO
Temperature: 7.8°C ( 46°F)
Dewpoint: 1.1°C ( 34°F) [RH = 63%]
Pressure (altimeter):30.17 inches Hg (1021.8 mb) [Sea level pressure: 1021.5 mb]
Winds:from the NNW (330 degrees) at 8 MPH (7 knots; 3.6 m/s)
Visibility:10 or more sm (16+ km)
Ceiling:at least 12,000 feet AGL
Clouds:sky clear below 12,000 feet AGL
QC Flag:automated observation with no human augmentation
Text:KHSE 201051Z AUTO 33008G14KT 300V020 10SM CLR 08/01 A3014 RMK AO2 SLP205 T00780011 TSNO
Temperature: 7.8°C ( 46°F)
Dewpoint: 1.1°C ( 34°F) [RH = 63%]
Pressure (altimeter):30.14 inches Hg (1020.7 mb) [Sea level pressure: 1020.5 mb]
Winds:from the NNW (330 degrees) at 9 MPH (8 knots; 4.1 m/s) gusting to 16 MPH (14 knots; 7.2 m/s)
Visibility:10 or more sm (16+ km)
Ceiling:at least 12,000 feet AGL
Clouds:sky clear below 12,000 feet AGL
QC Flag:automated observation with no human augmentation
Text:KHSE 200951Z AUTO 32009G19KT 10SM CLR 08/01 A3012 RMK AO2 SLP199 T00780011 TSNO
Temperature: 7.8°C ( 46°F)
Dewpoint: 1.1°C ( 34°F) [RH = 63%]
Pressure (altimeter):30.12 inches Hg (1020.1 mb) [Sea level pressure: 1019.9 mb]
Winds:from the NW (320 degrees) at 10 MPH (9 knots; 4.6 m/s) gusting to 22 MPH (19 knots; 9.8 m/s)
Visibility:10 or more sm (16+ km)
Ceiling:at least 12,000 feet AGL
Clouds:sky clear below 12,000 feet AGL
QC Flag:automated observation with no human augmentation
Text:KHSE 200851Z AUTO 33009G18KT 300V360 10SM CLR 08/01 A3009 RMK AO2 SLP188 T00830011 53016 TSNO
Temperature: 8.3°C ( 47°F)
Dewpoint: 1.1°C ( 34°F) [RH = 60%]
Pressure (altimeter):30.09 inches Hg (1019.0 mb) [Sea level pressure: 1018.8 mb]
Winds:from the NNW (330 degrees) at 10 MPH (9 knots; 4.6 m/s) gusting to 21 MPH (18 knots; 9.3 m/s)
Visibility:10 or more sm (16+ km)
Ceiling:at least 12,000 feet AGL
Clouds:sky clear below 12,000 feet AGL
QC Flag:automated observation with no human augmentation
Text:KHSE 200751Z AUTO 33009G18KT 310V010 10SM CLR 08/01 A3007 RMK AO2 SLP182 T00830011 TSNO
Temperature: 8.3°C ( 47°F)
Dewpoint: 1.1°C ( 34°F) [RH = 60%]
Pressure (altimeter):30.07 inches Hg (1018.4 mb) [Sea level pressure: 1018.2 mb]
Winds:from the NNW (330 degrees) at 10 MPH (9 knots; 4.6 m/s) gusting to 21 MPH (18 knots; 9.3 m/s)
Visibility:10 or more sm (16+ km)
Ceiling:at least 12,000 feet AGL
Clouds:sky clear below 12,000 feet AGL
QC Flag:automated observation with no human augmentation
Text:KHSE 200651Z AUTO 32009G19KT 10SM CLR 08/01 A3005 RMK AO2 SLP176 T00830011 TSNO
Temperature: 8.3°C ( 47°F)
Dewpoint: 1.1°C ( 34°F) [RH = 60%]
Pressure (altimeter):30.05 inches Hg (1017.7 mb) [Sea level pressure: 1017.6 mb]
Winds:from the NW (320 degrees) at 10 MPH (9 knots; 4.6 m/s) gusting to 22 MPH (19 knots; 9.8 m/s)
Visibility:10 or more sm (16+ km)
Ceiling:at least 12,000 feet AGL
Clouds:sky clear below 12,000 feet AGL
QC Flag:automated observation with no human augmentation
Text:KHSE 200551Z AUTO 32012G22KT 10SM CLR 09/01 A3004 RMK AO2 SLP172 T00890006 10139 20089 51026 TSNO
Temperature: 8.9°C ( 48°F)
Dewpoint: 0.6°C ( 33°F) [RH = 56%]
Pressure (altimeter):30.04 inches Hg (1017.4 mb) [Sea level pressure: 1017.2 mb]
Winds:from the NW (320 degrees) at 14 MPH (12 knots; 6.2 m/s) gusting to 25 MPH (22 knots; 11.3 m/s)
Visibility:10 or more sm (16+ km)
Ceiling:at least 12,000 feet AGL
Clouds:sky clear below 12,000 feet AGL
QC Flag:automated observation with no human augmentation
Text:KHSE 200451Z AUTO 31011G21KT 10SM CLR 09/02 A3002 RMK AO2 SLP165 T00940017 402060094 TSNO
Temperature: 9.4°C ( 49°F)
Dewpoint: 1.7°C ( 35°F) [RH = 59%]
Pressure (altimeter):30.02 inches Hg (1016.7 mb) [Sea level pressure: 1016.5 mb]
Winds:from the NW (310 degrees) at 13 MPH (11 knots; 5.7 m/s) gusting to 24 MPH (21 knots; 10.8 m/s)
Visibility:10 or more sm (16+ km)
Ceiling:at least 12,000 feet AGL
Clouds:sky clear below 12,000 feet AGL
QC Flag:automated observation with no human augmentation
Text:KHSE 200351Z AUTO 32011G22KT 10SM CLR 11/02 A2999 RMK AO2 SLP156 T01060022 TSNO
Temperature: 10.6°C ( 51°F)
Dewpoint: 2.2°C ( 36°F) [RH = 56%]
Pressure (altimeter):29.99 inches Hg (1015.7 mb) [Sea level pressure: 1015.6 mb]
Winds:from the NW (320 degrees) at 13 MPH (11 knots; 5.7 m/s) gusting to 25 MPH (22 knots; 11.3 m/s)
Visibility:10 or more sm (16+ km)
Ceiling:at least 12,000 feet AGL
Clouds:sky clear below 12,000 feet AGL
QC Flag:automated observation with no human augmentation
Text:KHSE 200251Z AUTO 32011G22KT 10SM CLR 12/03 A2996 RMK AO2 PK WND 32026/0210 SLP146 T01170028 52030 TSNO
Temperature: 11.7°C ( 53°F)
Dewpoint: 2.8°C ( 37°F) [RH = 54%]
Pressure (altimeter):29.96 inches Hg (1014.6 mb) [Sea level pressure: 1014.6 mb]
Winds:from the NW (320 degrees) at 13 MPH (11 knots; 5.7 m/s) gusting to 25 MPH (22 knots; 11.3 m/s)
Visibility:10 or more sm (16+ km)
Ceiling:at least 12,000 feet AGL
Clouds:sky clear below 12,000 feet AGL
QC Flag:automated observation with no human augmentation
Text:KHSE 200151Z AUTO 32012G20KT 10SM CLR 13/03 A2994 RMK AO2 SLP137 T01280033 TSNO
Temperature: 12.8°C ( 55°F)
Dewpoint: 3.3°C ( 38°F) [RH = 52%]
Pressure (altimeter):29.94 inches Hg (1014.0 mb) [Sea level pressure: 1013.7 mb]
Winds:from the NW (320 degrees) at 14 MPH (12 knots; 6.2 m/s) gusting to 23 MPH (20 knots; 10.3 m/s)
Visibility:10 or more sm (16+ km)
Ceiling:at least 12,000 feet AGL
Clouds:sky clear below 12,000 feet AGL
QC Flag:automated observation with no human augmentation
Text:KHSE 200051Z AUTO 32009G18KT 10SM CLR 13/04 A2990 RMK AO2 SLP125 T01330039 TSNO
Temperature: 13.3°C ( 56°F)
Dewpoint: 3.9°C ( 39°F) [RH = 53%]
Pressure (altimeter):29.90 inches Hg (1012.6 mb) [Sea level pressure: 1012.5 mb]
Winds:from the NW (320 degrees) at 10 MPH (9 knots; 4.6 m/s) gusting to 21 MPH (18 knots; 9.3 m/s)
Visibility:10 or more sm (16+ km)
Ceiling:at least 12,000 feet AGL
Clouds:sky clear below 12,000 feet AGL
QC Flag:automated observation with no human augmentation
Text:KHSE 192351Z AUTO 32011G18KT 10SM CLR 14/04 A2987 RMK AO2 SLP116 T01390039 10172 20139 53042 TSNO
Temperature: 13.9°C ( 57°F)
Dewpoint: 3.9°C ( 39°F) [RH = 51%]
Pressure (altimeter):29.87 inches Hg (1011.6 mb) [Sea level pressure: 1011.6 mb]
Winds:from the NW (320 degrees) at 13 MPH (11 knots; 5.7 m/s) gusting to 21 MPH (18 knots; 9.3 m/s)
Visibility:10 or more sm (16+ km)
Ceiling:at least 12,000 feet AGL
Clouds:sky clear below 12,000 feet AGL
QC Flag:automated observation with no human augmentation
Text:KHSE 192251Z AUTO 33007KT 10SM CLR 14/04 A2983 RMK AO2 SLP102 T01390039 TSNO
Temperature: 13.9°C ( 57°F)
Dewpoint: 3.9°C ( 39°F) [RH = 51%]
Pressure (altimeter):29.83 inches Hg (1010.2 mb) [Sea level pressure: 1010.2 mb]
Winds:from the NNW (330 degrees) at 8 MPH (7 knots; 3.6 m/s)
Visibility:10 or more sm (16+ km)
Ceiling:at least 12,000 feet AGL
Clouds:sky clear below 12,000 feet AGL
QC Flag:automated observation with no human augmentation
Text:KHSE 192151Z AUTO 33008KT 10SM CLR 14/06 A2979 RMK AO2 SLP088 T01440061 TSNO
Temperature: 14.4°C ( 58°F)
Dewpoint: 6.1°C ( 43°F) [RH = 57%]
Pressure (altimeter):29.79 inches Hg (1008.9 mb) [Sea level pressure: 1008.8 mb]
Winds:from the NNW (330 degrees) at 9 MPH (8 knots; 4.1 m/s)
Visibility:10 or more sm (16+ km)
Ceiling:at least 12,000 feet AGL
Clouds:sky clear below 12,000 feet AGL
QC Flag:automated observation with no human augmentation
Text:KHSE 192051Z AUTO 33006KT 10SM CLR 16/08 A2975 RMK AO2 SLP074 T01610078 53017 TSNO
Temperature: 16.1°C ( 61°F)
Dewpoint: 7.8°C ( 46°F) [RH = 58%]
Pressure (altimeter):29.75 inches Hg (1007.5 mb) [Sea level pressure: 1007.4 mb]
Winds:from the NNW (330 degrees) at 7 MPH (6 knots; 3.1 m/s)
Visibility:10 or more sm (16+ km)
Ceiling:at least 12,000 feet AGL
Clouds:sky clear below 12,000 feet AGL
QC Flag:automated observation with no human augmentation
Text:KHSE 191951Z AUTO 32007G15KT 10SM CLR 17/09 A2971 RMK AO2 SLP062 T01720089 TSNO
Temperature: 17.2°C ( 63°F)
Dewpoint: 8.9°C ( 48°F) [RH = 58%]
Pressure (altimeter):29.71 inches Hg (1006.2 mb) [Sea level pressure: 1006.2 mb]
Winds:from the NW (320 degrees) at 8 MPH (7 knots; 3.6 m/s) gusting to 17 MPH (15 knots; 7.7 m/s)
Visibility:10 or more sm (16+ km)
Ceiling:at least 12,000 feet AGL
Clouds:sky clear below 12,000 feet AGL
QC Flag:automated observation with no human augmentation
Text:KHSE 191851Z AUTO 32010G17KT 10SM CLR 17/08 A2970 RMK AO2 SLP056 T01670078 TSNO
Temperature: 16.7°C ( 62°F)
Dewpoint: 7.8°C ( 46°F) [RH = 56%]
Pressure (altimeter):29.70 inches Hg (1005.8 mb) [Sea level pressure: 1005.6 mb]
Winds:from the NW (320 degrees) at 12 MPH (10 knots; 5.1 m/s) gusting to 20 MPH (17 knots; 8.7 m/s)
Visibility:10 or more sm (16+ km)
Ceiling:at least 12,000 feet AGL
Clouds:sky clear below 12,000 feet AGL
QC Flag:automated observation with no human augmentation
Text:KHSE 191751Z AUTO 32011G21KT 10SM CLR 16/08 A2970 RMK AO2 SLP058 60009 T01610078 10206 20150 53002 TSNO
Temperature: 16.1°C ( 61°F)
Dewpoint: 7.8°C ( 46°F) [RH = 58%]
Pressure (altimeter):29.70 inches Hg (1005.8 mb) [Sea level pressure: 1005.8 mb]
Winds:from the NW (320 degrees) at 13 MPH (11 knots; 5.7 m/s) gusting to 24 MPH (21 knots; 10.8 m/s)
Visibility:10 or more sm (16+ km)
Ceiling:at least 12,000 feet AGL
Clouds:sky clear below 12,000 feet AGL
QC Flag:automated observation with no human augmentation
Text:KHSE 191651Z AUTO 31012G20KT 10SM CLR 17/09 A2970 RMK AO2 SLP055 T01670089 TSNO
Temperature: 16.7°C ( 62°F)
Dewpoint: 8.9°C ( 48°F) [RH = 60%]
Pressure (altimeter):29.70 inches Hg (1005.8 mb) [Sea level pressure: 1005.5 mb]
Winds:from the NW (310 degrees) at 14 MPH (12 knots; 6.2 m/s) gusting to 23 MPH (20 knots; 10.3 m/s)
Visibility:10 or more sm (16+ km)
Ceiling:at least 12,000 feet AGL
Clouds:sky clear below 12,000 feet AGL
QC Flag:automated observation with no human augmentation
Text:KHSE 191551Z AUTO 30010G18KT 10SM BKN040 OVC060 17/14 A2969 RMK AO2 RAE00 SLP054 P0000 T01670139 TSNO
Temperature: 16.7°C ( 62°F)
Dewpoint: 13.9°C ( 57°F) [RH = 84%]
Pressure (altimeter):29.69 inches Hg (1005.5 mb) [Sea level pressure: 1005.4 mb]
Winds:from the WNW (300 degrees) at 12 MPH (10 knots; 5.1 m/s) gusting to 21 MPH (18 knots; 9.3 m/s)
Visibility:10 or more sm (16+ km)
Ceiling:4000 feet AGL
Clouds: broken clouds at 4000 feet AGL, overcast cloud deck at 6000 feet AGL
QC Flag:automated observation with no human augmentation
Text:KHSE 191451Z AUTO 29011G23KT 8SM -RA SCT025 BKN038 OVC095 16/14 A2970 RMK AO2 PK WND 25027/1400 RAE1356B25 PRESRR SLP056 P0000 60009 T01610144 53027 TSNO
Temperature: 16.1°C ( 61°F)
Dewpoint: 14.4°C ( 58°F) [RH = 90%]
Pressure (altimeter):29.70 inches Hg (1005.8 mb) [Sea level pressure: 1005.6 mb]
Winds:from the WNW (290 degrees) at 13 MPH (11 knots; 5.7 m/s) gusting to 26 MPH (23 knots; 11.8 m/s)
Visibility: 8 sm ( 13 km)
Ceiling:3800 feet AGL
Clouds: scattered clouds at 2500 feet AGL, broken clouds at 3800 feet AGL, overcast cloud deck at 9500 feet AGL
Weather:-RA (light rain)
QC Flag:automated observation with no human augmentation
Text:KHSE 191351Z AUTO 24016G27KT 5SM -RA BR OVC070 18/17 A2966 RMK AO2 PK WND 25033/1253 SLP043 P0009 T01780167 TSNO
Temperature: 17.8°C ( 64°F)
Dewpoint: 16.7°C ( 62°F) [RH = 93%]
Pressure (altimeter):29.66 inches Hg (1004.5 mb) [Sea level pressure: 1004.3 mb]
Winds:from the WSW (240 degrees) at 18 MPH (16 knots; 8.2 m/s) gusting to 31 MPH (27 knots; 13.9 m/s)
Visibility: 5 sm ( 8 km)
Ceiling:7000 feet AGL
Clouds: overcast cloud deck at 7000 feet AGL
Weather:-RA BR (light rain, mist)
QC Flag:automated observation with no human augmentation
Text:KHSE 191332Z AUTO 24017G27KT 3SM RA BR BKN065 OVC080 18/17 A2966 RMK AO2 PK WND 25033/1253 P0008 T01780172 TSNO
Temperature: 17.8°C ( 64°F)
Dewpoint: 17.2°C ( 63°F) [RH = 96%]
Pressure (altimeter):29.66 inches Hg (1004.5 mb)
Winds:from the WSW (240 degrees) at 20 MPH (17 knots; 8.7 m/s) gusting to 31 MPH (27 knots; 13.9 m/s)
Visibility: 3 sm ( 5 km)
Ceiling:6500 feet AGL
Clouds: broken clouds at 6500 feet AGL, overcast cloud deck at 8000 feet AGL
Weather:RA BR (moderate rain, mist)
QC Flag:automated observation with no human augmentation
Text:KHSE 191320Z AUTO 24019G31KT 2 1/2SM +RA BR OVC070 18/17 A2966 RMK AO2 PK WND 25033/1253 P0006 T01780172 TSNO
Temperature: 17.8°C ( 64°F)
Dewpoint: 17.2°C ( 63°F) [RH = 96%]
Pressure (altimeter):29.66 inches Hg (1004.5 mb)
Winds:from the WSW (240 degrees) at 22 MPH (19 knots; 9.8 m/s) gusting to 36 MPH (31 knots; 15.9 m/s)
Visibility: 2.50 sm ( 4.02 km)
Ceiling:7000 feet AGL
Clouds: overcast cloud deck at 7000 feet AGL
Weather:+RA BR (heavy rain, mist)
QC Flag:automated observation with no human augmentation
Text:KHSE 191251Z AUTO 24023G35KT 6SM -RA OVC070 19/16 A2964 RMK AO2 PK WND 25036/1237 RAB10E22B48 SLP038 P0000 T01940161 TSNO
Temperature: 19.4°C ( 67°F)
Dewpoint: 16.1°C ( 61°F) [RH = 81%]
Pressure (altimeter):29.64 inches Hg (1003.8 mb) [Sea level pressure: 1003.8 mb]
Winds:from the WSW (240 degrees) at 26 MPH (23 knots; 11.8 m/s) gusting to 40 MPH (35 knots; 18.0 m/s)
Visibility: 6 sm ( 10 km)
Ceiling:7000 feet AGL
Clouds: overcast cloud deck at 7000 feet AGL
Weather:-RA (light rain)
QC Flag:automated observation with no human augmentation